createdAt,value
2017-09-21T00:01:17.486Z,90.90
2017-09-21T00:03:45.107Z,90.90
2017-09-21T00:06:13.474Z,90.90
2017-09-21T00:08:41.894Z,90.80
2017-09-21T00:11:09.499Z,90.80
2017-09-21T00:13:37.095Z,90.80
2017-09-21T00:16:04.898Z,90.80
2017-09-21T00:18:32.508Z,90.70
2017-09-21T00:21:00.874Z,90.80
2017-09-21T00:23:29.304Z,90.70
2017-09-21T00:25:56.910Z,90.70
2017-09-21T00:28:24.510Z,90.70
2017-09-21T00:30:52.159Z,90.70
2017-09-21T00:33:19.761Z,90.70
2017-09-21T00:35:47.404Z,90.40
2017-09-21T00:38:15.167Z,90.50
2017-09-21T00:40:42.774Z,90.40
2017-09-21T00:43:10.388Z,90.40
2017-09-21T00:45:38.188Z,90.50
2017-09-21T00:48:05.805Z,90.50
2017-09-21T00:50:33.417Z,90.50
2017-09-21T00:53:01.084Z,90.50
2017-09-21T00:55:29.467Z,90.50
2017-09-21T00:57:57.073Z,90.50
2017-09-21T01:00:24.766Z,90.60
2017-09-21T01:02:52.379Z,90.60
2017-09-21T01:05:20.743Z,90.70
2017-09-21T01:07:49.171Z,90.70
2017-09-21T01:10:16.780Z,90.70
2017-09-21T01:12:44.381Z,90.80
2017-09-21T01:15:12.050Z,90.70
2017-09-21T01:17:39.665Z,90.70
2017-09-21T01:20:07.273Z,90.80
2017-09-21T01:22:35.061Z,90.90
2017-09-21T01:25:03.523Z,90.90
2017-09-21T01:27:31.331Z,91.00
2017-09-21T01:32:31.823Z,91.10
2017-09-21T01:34:59.588Z,91.10
2017-09-21T01:37:27.205Z,91.10
2017-09-21T01:39:55.579Z,91.30
2017-09-21T01:42:23.247Z,91.20
2017-09-21T01:44:50.864Z,91.30
2017-09-21T01:47:18.477Z,91.30
2017-09-21T01:49:46.148Z,91.30
2017-09-21T01:52:14.509Z,91.70
2017-09-21T01:54:42.894Z,91.40
2017-09-21T01:57:10.761Z,91.40
2017-09-21T01:59:38.361Z,91.40
2017-09-21T02:02:06.722Z,91.50
2017-09-21T02:04:35.161Z,91.60
2017-09-21T02:07:03.542Z,91.50
2017-09-21T02:09:31.909Z,91.60
2017-09-21T02:12:00.523Z,91.60
2017-09-21T02:14:28.130Z,91.60
2017-09-21T02:16:56.498Z,91.70
2017-09-21T02:19:24.273Z,91.70
2017-09-21T02:21:51.874Z,91.70
2017-09-21T02:24:20.255Z,91.70
2017-09-21T02:26:48.035Z,91.70
2017-09-21T02:29:15.634Z,91.70
2017-09-21T02:31:44.003Z,91.70
2017-09-21T02:34:12.440Z,91.70
2017-09-21T02:36:40.042Z,91.60
2017-09-21T02:39:07.740Z,91.70
2017-09-21T02:41:35.404Z,91.80
2017-09-21T02:44:03.785Z,91.80
2017-09-21T02:46:31.403Z,91.80
2017-09-21T02:48:59.829Z,91.90
2017-09-21T02:51:27.425Z,91.90
2017-09-21T02:53:55.044Z,91.90
2017-09-21T02:56:22.708Z,91.90
2017-09-21T02:58:51.084Z,91.90
2017-09-21T03:01:18.684Z,91.90
2017-09-21T03:03:46.507Z,91.80
2017-09-21T03:06:14.102Z,91.80
2017-09-21T03:08:42.470Z,91.80
2017-09-21T03:11:10.892Z,91.80
2017-09-21T03:13:38.653Z,91.70
2017-09-21T03:16:06.253Z,91.70
2017-09-21T03:18:33.937Z,91.60
2017-09-21T03:21:01.547Z,91.60
2017-09-21T03:23:29.163Z,91.90
2017-09-21T03:25:57.582Z,91.50
2017-09-21T03:28:25.181Z,91.40
2017-09-21T03:30:52.797Z,91.40
2017-09-21T03:33:20.472Z,91.40
2017-09-21T03:35:48.083Z,91.10
2017-09-21T03:38:16.340Z,91.40
2017-09-21T03:40:44.159Z,91.30
2017-09-21T03:43:12.679Z,91.30
2017-09-21T03:45:42.949Z,91.30
2017-09-21T03:48:13.359Z,91.20
2017-09-21T03:50:43.499Z,91.20
2017-09-21T03:53:11.394Z,91.20
2017-09-21T03:55:39.003Z,91.10
2017-09-21T03:58:07.371Z,91.10
2017-09-21T04:00:35.233Z,91.10
2017-09-21T04:03:02.839Z,91.10
2017-09-21T04:05:30.461Z,91.10
2017-09-21T04:07:58.814Z,91.10
2017-09-21T04:10:26.488Z,91.10
2017-09-21T04:12:54.100Z,91.10
2017-09-21T04:15:21.741Z,91.00
2017-09-21T04:17:49.588Z,91.00
2017-09-21T04:20:20.377Z,91.00
2017-09-21T04:22:51.878Z,91.00
2017-09-21T04:25:23.551Z,90.90
2017-09-21T04:27:55.450Z,90.80
2017-09-21T04:30:23.279Z,90.80
2017-09-21T04:32:50.895Z,90.70
2017-09-21T04:35:18.768Z,90.70
2017-09-21T04:37:46.383Z,90.80
2017-09-21T04:40:14.000Z,90.80
2017-09-21T04:42:41.766Z,90.80
2017-09-21T04:45:10.126Z,90.90
2017-09-21T04:47:38.500Z,90.90
2017-09-21T04:50:07.100Z,90.90
2017-09-21T04:52:34.707Z,90.90
2017-09-21T04:55:03.078Z,90.90
2017-09-21T04:57:30.749Z,90.90
2017-09-21T04:59:58.360Z,90.90
2017-09-21T05:02:25.980Z,91.00
2017-09-21T05:04:53.656Z,91.10
2017-09-21T05:07:21.277Z,91.20
2017-09-21T05:09:49.657Z,91.10
2017-09-21T05:12:18.082Z,91.00
2017-09-21T05:14:45.700Z,91.00
2017-09-21T05:17:13.309Z,91.00
2017-09-21T05:19:41.760Z,90.90
2017-09-21T05:22:10.141Z,90.80
2017-09-21T05:24:38.785Z,90.70
2017-09-21T05:27:07.214Z,90.70
2017-09-21T05:29:34.836Z,90.50
2017-09-21T05:32:02.451Z,90.40
2017-09-21T05:34:30.891Z,90.40
2017-09-21T05:36:58.498Z,90.30
2017-09-21T05:39:26.106Z,90.30
2017-09-21T05:41:54.523Z,90.30
2017-09-21T05:44:22.134Z,90.30
2017-09-21T05:46:49.738Z,90.30
2017-09-21T05:49:17.387Z,90.30
2017-09-21T05:51:44.990Z,90.20
2017-09-21T05:54:12.608Z,90.20
2017-09-21T05:56:40.492Z,90.20
2017-09-21T05:59:08.096Z,90.10
2017-09-21T06:01:36.484Z,90.00
2017-09-21T06:04:04.290Z,90.00
2017-09-21T06:06:32.668Z,89.60
2017-09-21T06:09:00.389Z,89.60
2017-09-21T06:11:28.048Z,89.50
2017-09-21T06:13:56.413Z,89.40
2017-09-21T06:16:24.818Z,89.20
2017-09-21T06:18:52.475Z,89.00
2017-09-21T06:21:20.096Z,88.90
2017-09-21T06:23:47.721Z,88.70
2017-09-21T06:26:16.142Z,88.40
2017-09-21T06:28:43.774Z,88.40
2017-09-21T06:31:11.388Z,88.30
2017-09-21T06:33:39.058Z,88.20
2017-09-21T06:36:06.662Z,88.00
2017-09-21T06:38:35.038Z,87.30
2017-09-21T06:41:03.484Z,86.90
2017-09-21T06:43:31.862Z,86.80
2017-09-21T06:45:59.491Z,86.70
2017-09-21T06:48:27.923Z,85.70
2017-09-21T06:50:55.544Z,85.70
2017-09-21T06:53:23.158Z,85.70
2017-09-21T06:55:51.590Z,85.00
2017-09-21T06:58:19.240Z,84.90
2017-09-21T07:00:46.876Z,84.80
2017-09-21T07:03:14.539Z,84.50
2017-09-21T07:05:42.146Z,83.80
2017-09-21T07:08:09.743Z,83.50
2017-09-21T07:10:38.173Z,81.90
2017-09-21T07:13:06.565Z,81.70
2017-09-21T07:15:34.196Z,81.70
2017-09-21T07:18:02.624Z,80.90
2017-09-21T07:20:30.226Z,80.80
2017-09-21T07:22:58.610Z,79.20
2017-09-21T07:25:26.275Z,79.20
2017-09-21T07:27:53.903Z,79.20
2017-09-21T07:30:21.500Z,78.90
2017-09-21T07:32:49.313Z,77.60
2017-09-21T07:35:17.732Z,77.00
2017-09-21T07:37:45.856Z,76.40
2017-09-21T07:40:14.422Z,76.30
2017-09-21T07:42:42.037Z,76.30
2017-09-21T07:45:09.660Z,76.60
2017-09-21T07:47:37.539Z,76.80
2017-09-21T07:50:05.143Z,77.10
2017-09-21T07:52:33.527Z,76.80
2017-09-21T07:55:01.218Z,76.70
2017-09-21T07:57:34.557Z,76.20
2017-09-21T08:00:03.062Z,76.20
2017-09-21T08:02:31.236Z,76.60
2017-09-21T08:05:00.164Z,77.50
2017-09-21T08:07:28.835Z,76.90
2017-09-21T08:09:56.517Z,77.00
2017-09-21T08:12:24.115Z,77.20
2017-09-21T08:14:51.776Z,77.40
2017-09-21T08:17:19.379Z,77.00
2017-09-21T08:19:47.743Z,76.60
2017-09-21T08:22:16.154Z,75.10
2017-09-21T08:24:43.753Z,75.10
2017-09-21T08:27:11.375Z,75.10
2017-09-21T08:29:39.804Z,73.40
2017-09-21T08:32:07.419Z,73.30
2017-09-21T08:34:35.010Z,72.40
2017-09-21T08:37:02.660Z,71.40
2017-09-21T08:39:30.271Z,70.60
2017-09-21T08:41:57.875Z,70.40
2017-09-21T08:44:26.291Z,70.60
2017-09-21T08:46:53.896Z,70.50
2017-09-21T08:49:21.494Z,70.30
2017-09-21T08:51:49.145Z,70.20
2017-09-21T08:54:18.262Z,67.50
2017-09-21T08:56:45.863Z,67.40
2017-09-21T08:59:13.526Z,67.60
2017-09-21T09:01:41.136Z,67.10
2017-09-21T09:04:08.730Z,67.10
2017-09-21T09:06:37.295Z,66.30
2017-09-21T09:09:05.664Z,67.90
2017-09-21T09:11:34.043Z,68.00
2017-09-21T09:14:01.682Z,67.80
2017-09-21T09:16:30.190Z,67.50
2017-09-21T09:18:57.860Z,67.90
2017-09-21T09:21:25.511Z,68.40
2017-09-21T09:23:53.111Z,68.50
2017-09-21T09:26:20.721Z,68.00
2017-09-21T09:28:50.849Z,66.60
2017-09-21T09:31:18.450Z,66.60
2017-09-21T09:33:46.833Z,66.80
2017-09-21T09:36:14.504Z,66.70
2017-09-21T09:38:42.113Z,66.80
2017-09-21T09:41:10.475Z,67.50
2017-09-21T09:43:39.075Z,67.40
2017-09-21T09:46:06.720Z,67.40
2017-09-21T09:48:34.456Z,67.20
2017-09-21T09:51:02.198Z,67.60
2017-09-21T09:53:29.861Z,67.50
2017-09-21T09:55:57.495Z,67.10
2017-09-21T09:58:25.373Z,67.30
2017-09-21T10:00:52.988Z,66.30
2017-09-21T10:03:20.600Z,65.40
2017-09-21T10:05:48.251Z,66.10
2017-09-21T10:08:16.495Z,66.40
2017-09-21T10:10:44.905Z,66.60
2017-09-21T10:13:12.765Z,67.30
2017-09-21T10:15:40.385Z,66.50
2017-09-21T10:18:09.468Z,66.80
2017-09-21T10:20:38.132Z,66.40
2017-09-21T10:23:07.078Z,66.10
2017-09-21T10:25:34.674Z,66.00
2017-09-21T10:28:02.321Z,66.90
2017-09-21T10:30:29.934Z,66.50
2017-09-21T10:33:00.134Z,66.10
2017-09-21T10:35:28.670Z,64.90
2017-09-21T10:37:56.271Z,64.80
2017-09-21T10:40:23.881Z,64.70
2017-09-21T10:42:51.548Z,64.60
2017-09-21T10:45:19.935Z,65.10
2017-09-21T10:47:47.527Z,65.10
2017-09-21T10:50:15.360Z,64.20
2017-09-21T10:52:42.972Z,64.30
2017-09-21T10:55:11.381Z,65.60
2017-09-21T10:57:39.196Z,65.40
2017-09-21T11:00:06.801Z,65.30
2017-09-21T11:02:35.177Z,63.40
2017-09-21T11:05:02.928Z,63.40
2017-09-21T11:07:30.561Z,64.60
2017-09-21T11:09:58.925Z,63.80
2017-09-21T11:12:27.453Z,63.40
2017-09-21T11:14:55.075Z,63.30
2017-09-21T11:17:22.694Z,62.80
2017-09-21T11:19:50.364Z,61.90
2017-09-21T11:22:17.962Z,62.70
2017-09-21T11:24:46.348Z,62.80
2017-09-21T11:27:14.209Z,62.70
2017-09-21T11:29:41.805Z,63.70
2017-09-21T11:32:09.424Z,64.20
2017-09-21T11:34:37.074Z,64.40
2017-09-21T11:37:04.677Z,65.10
2017-09-21T11:39:32.280Z,65.30
2017-09-21T11:42:00.035Z,64.90
2017-09-21T11:44:27.694Z,65.50
2017-09-21T11:46:56.064Z,65.30
2017-09-21T11:49:24.508Z,65.40
2017-09-21T11:51:52.110Z,65.30
2017-09-21T11:54:19.725Z,65.20
2017-09-21T11:56:47.494Z,65.40
2017-09-21T11:59:15.113Z,64.60
2017-09-21T12:01:45.643Z,64.60
2017-09-21T12:04:14.306Z,65.60
2017-09-21T12:06:42.895Z,65.30
2017-09-21T12:09:10.504Z,65.30
2017-09-21T12:11:38.930Z,64.50
2017-09-21T12:14:06.530Z,64.40
2017-09-21T12:16:34.140Z,62.70
2017-09-21T12:19:01.922Z,62.70
2017-09-21T12:21:29.518Z,62.60
2017-09-21T12:23:57.138Z,62.60
2017-09-21T12:26:24.786Z,61.40
2017-09-21T12:28:52.406Z,62.90
2017-09-21T12:31:20.007Z,62.90
2017-09-21T12:33:48.523Z,63.40
2017-09-21T12:36:16.127Z,63.40
2017-09-21T12:38:44.509Z,62.40
2017-09-21T12:41:12.243Z,62.40
2017-09-21T12:43:40.602Z,62.40
2017-09-21T12:46:08.976Z,62.70
2017-09-21T12:48:37.402Z,62.10
2017-09-21T12:51:05.024Z,61.90
2017-09-21T12:53:32.636Z,62.50
2017-09-21T12:56:00.393Z,62.30
2017-09-21T12:58:28.005Z,62.30
2017-09-21T13:00:55.612Z,62.20
2017-09-21T13:03:23.280Z,62.10
2017-09-21T13:05:50.902Z,62.30
2017-09-21T13:08:18.512Z,62.80
2017-09-21T13:10:46.187Z,62.30
2017-09-21T13:13:13.800Z,61.90
2017-09-21T13:15:41.402Z,63.10
2017-09-21T13:18:09.164Z,62.90
2017-09-21T13:20:36.774Z,61.80
2017-09-21T13:23:04.408Z,61.10
2017-09-21T13:25:32.162Z,60.70
2017-09-21T13:27:59.772Z,60.30
2017-09-21T13:30:27.374Z,59.40
2017-09-21T13:32:55.060Z,58.70
2017-09-21T13:35:23.426Z,58.50
2017-09-21T13:37:51.037Z,58.50
2017-09-21T13:40:18.708Z,59.30
2017-09-21T13:42:47.090Z,59.40
2017-09-21T13:45:14.701Z,59.40
2017-09-21T13:47:42.346Z,58.80
2017-09-21T13:50:10.720Z,60.30
2017-09-21T13:52:39.104Z,60.70
2017-09-21T13:55:06.978Z,60.70
2017-09-21T13:57:34.598Z,61.40
2017-09-21T14:00:02.209Z,61.30
2017-09-21T14:02:29.955Z,62.70
2017-09-21T14:04:57.568Z,62.10
2017-09-21T14:07:25.208Z,63.00
2017-09-21T14:09:53.042Z,63.00
2017-09-21T14:12:21.527Z,63.30
2017-09-21T14:14:49.118Z,63.50
2017-09-21T14:17:17.630Z,64.50
2017-09-21T14:19:45.218Z,64.40
2017-09-21T14:22:13.582Z,64.00
2017-09-21T14:24:42.002Z,63.40
2017-09-21T14:27:10.440Z,63.40
2017-09-21T14:29:38.035Z,63.10
2017-09-21T14:32:05.847Z,63.00
2017-09-21T14:34:33.459Z,62.70
2017-09-21T14:37:01.845Z,63.30
2017-09-21T14:39:29.529Z,63.10
2017-09-21T14:41:57.130Z,63.40
2017-09-21T14:44:24.756Z,63.40
2017-09-21T14:46:53.173Z,64.40
2017-09-21T14:49:20.774Z,64.40
2017-09-21T14:51:48.420Z,64.80
2017-09-21T14:54:16.942Z,64.90
2017-09-21T14:56:44.605Z,65.10
2017-09-21T14:59:12.468Z,65.20
2017-09-21T15:01:40.890Z,67.40
2017-09-21T15:04:08.509Z,67.30
2017-09-21T15:06:36.126Z,67.00
2017-09-21T15:09:04.542Z,67.50
2017-09-21T15:11:32.151Z,67.50
2017-09-21T15:13:59.770Z,67.60
2017-09-21T15:16:28.220Z,68.10
2017-09-21T15:18:55.825Z,68.10
2017-09-21T15:21:23.432Z,68.10
2017-09-21T15:23:51.905Z,68.50
2017-09-21T15:26:19.520Z,68.50
2017-09-21T15:28:47.127Z,68.50
2017-09-21T15:31:14.804Z,69.30
2017-09-21T15:33:42.437Z,70.00
2017-09-21T15:36:10.041Z,69.80
2017-09-21T15:38:37.701Z,70.50
2017-09-21T15:41:05.340Z,70.50
2017-09-21T15:43:32.947Z,70.90
2017-09-21T15:46:01.472Z,71.70
2017-09-21T15:48:29.065Z,71.70
2017-09-21T15:50:57.430Z,71.90
2017-09-21T15:53:25.848Z,71.80
2017-09-21T15:55:53.454Z,71.80
2017-09-21T15:58:21.046Z,71.90
2017-09-21T16:00:48.694Z,71.80
2017-09-21T16:03:16.299Z,72.00
2017-09-21T16:05:45.276Z,72.40
2017-09-21T16:08:13.167Z,72.90
2017-09-21T16:10:40.789Z,73.00
2017-09-21T16:13:08.386Z,73.30
2017-09-21T16:15:36.920Z,73.60
2017-09-21T16:18:04.534Z,73.60
2017-09-21T16:20:32.133Z,73.50
2017-09-21T16:23:02.062Z,73.80
2017-09-21T16:25:29.705Z,74.50
2017-09-21T16:27:57.303Z,74.20
2017-09-21T16:30:24.958Z,74.20
2017-09-21T16:32:52.554Z,74.60
2017-09-21T16:35:20.192Z,75.00
2017-09-21T16:37:47.844Z,75.20
2017-09-21T16:40:15.832Z,75.50
2017-09-21T16:42:43.579Z,76.20
2017-09-21T16:45:11.393Z,76.30
2017-09-21T16:47:38.990Z,76.40
2017-09-21T16:50:06.624Z,76.80
2017-09-21T16:52:34.545Z,76.80
2017-09-21T16:55:02.152Z,77.10
2017-09-21T16:57:30.528Z,78.20
2017-09-21T16:59:58.178Z,77.40
2017-09-21T17:02:25.782Z,77.60
2017-09-21T17:04:54.179Z,77.70
2017-09-21T17:07:21.857Z,77.60
2017-09-21T17:09:49.928Z,77.50
2017-09-21T17:12:17.549Z,77.80
2017-09-21T17:14:45.465Z,78.20
2017-09-21T17:17:13.901Z,78.70
2017-09-21T17:19:41.551Z,78.70
2017-09-21T17:22:09.254Z,79.20
2017-09-21T17:24:36.860Z,79.50
2017-09-21T17:27:04.473Z,79.50
2017-09-21T17:29:32.136Z,79.50
2017-09-21T17:31:59.738Z,80.10
2017-09-21T17:34:27.367Z,80.40
2017-09-21T17:36:55.132Z,80.80
2017-09-21T17:39:22.740Z,80.90
2017-09-21T17:41:51.112Z,81.40
2017-09-21T17:44:18.763Z,81.40
2017-09-21T17:46:46.358Z,81.60
2017-09-21T17:49:14.764Z,81.70
2017-09-21T17:51:42.421Z,81.70
2017-09-21T17:54:10.106Z,81.90
2017-09-21T17:56:37.720Z,82.10
2017-09-21T17:59:05.565Z,82.20
2017-09-21T18:01:33.180Z,82.50
2017-09-21T18:04:01.543Z,83.10
2017-09-21T18:06:29.966Z,83.00
2017-09-21T18:08:57.562Z,83.00
2017-09-21T18:11:25.272Z,83.10
2017-09-21T18:13:53.027Z,83.20
2017-09-21T18:16:20.836Z,84.20
2017-09-21T18:18:48.438Z,83.60
2017-09-21T18:21:18.485Z,83.70
2017-09-21T18:23:47.891Z,84.30
2017-09-21T18:26:18.188Z,84.20
2017-09-21T18:28:46.700Z,84.40
2017-09-21T18:31:15.071Z,84.80
2017-09-21T18:33:42.813Z,84.70
2017-09-21T18:36:11.172Z,85.20
2017-09-21T18:38:38.770Z,85.20
2017-09-21T18:41:07.109Z,85.20
2017-09-21T18:43:35.020Z,85.30
2017-09-21T18:46:02.688Z,85.30
2017-09-21T18:48:30.468Z,85.30
2017-09-21T18:50:58.667Z,85.30
2017-09-21T18:53:26.378Z,85.50
2017-09-21T18:55:54.369Z,85.60
2017-09-21T18:58:22.113Z,85.70
2017-09-21T19:00:50.345Z,85.70
2017-09-21T19:03:18.230Z,85.60
2017-09-21T19:05:45.990Z,85.70
2017-09-21T19:08:13.928Z,85.80
2017-09-21T19:10:42.129Z,85.70
2017-09-21T19:13:10.227Z,85.70
2017-09-21T19:15:37.952Z,85.80
2017-09-21T19:18:05.684Z,85.90
2017-09-21T19:20:33.739Z,85.90
2017-09-21T19:23:01.596Z,86.00
2017-09-21T19:25:29.506Z,86.10
2017-09-21T19:27:59.190Z,86.30
2017-09-21T19:30:26.910Z,86.30
2017-09-21T19:32:54.568Z,86.30
2017-09-21T19:35:22.192Z,86.10
2017-09-21T19:37:49.803Z,86.20
2017-09-21T19:40:17.458Z,86.40
2017-09-21T19:42:45.072Z,86.60
2017-09-21T19:45:13.453Z,86.60
2017-09-21T19:47:41.297Z,86.50
2017-09-21T19:50:08.899Z,87.30
2017-09-21T19:52:36.516Z,86.60
2017-09-21T19:55:04.187Z,86.70
2017-09-21T19:57:31.796Z,86.70
2017-09-21T19:59:59.408Z,86.70
2017-09-21T20:02:27.849Z,86.90
2017-09-21T20:04:55.465Z,86.90
2017-09-21T20:07:23.082Z,87.00
2017-09-21T20:09:50.849Z,87.00
2017-09-21T20:12:18.457Z,87.10
2017-09-21T20:14:46.836Z,87.30
2017-09-21T20:17:14.610Z,87.30
2017-09-21T20:19:42.220Z,87.30
2017-09-21T20:22:09.839Z,87.30
2017-09-21T20:24:37.754Z,87.40
2017-09-21T20:27:05.998Z,87.40
2017-09-21T20:29:33.612Z,87.40
2017-09-21T20:32:02.246Z,88.00
2017-09-21T20:34:31.457Z,88.00
2017-09-21T20:36:59.840Z,88.00
2017-09-21T20:39:27.508Z,88.00
2017-09-21T20:41:55.944Z,87.80
2017-09-21T20:44:23.548Z,87.80
2017-09-21T20:46:51.197Z,87.70
2017-09-21T20:49:18.798Z,87.80
2017-09-21T20:51:46.421Z,87.80
2017-09-21T20:54:14.771Z,87.60
2017-09-21T20:56:43.149Z,86.80
2017-09-21T20:59:10.758Z,86.80
2017-09-21T21:01:38.533Z,86.70
2017-09-21T21:04:06.897Z,87.00
2017-09-21T21:06:35.268Z,87.20
2017-09-21T21:09:02.934Z,87.20
2017-09-21T21:11:30.538Z,87.30
2017-09-21T21:13:58.912Z,87.80
2017-09-21T21:16:27.343Z,88.00
2017-09-21T21:18:57.759Z,87.90
2017-09-21T21:21:25.364Z,87.80
2017-09-21T21:23:54.046Z,88.00
2017-09-21T21:26:21.649Z,88.00
2017-09-21T21:28:49.251Z,88.00
2017-09-21T21:31:18.022Z,88.10
2017-09-21T21:33:45.634Z,88.20
2017-09-21T21:36:13.247Z,88.00
2017-09-21T21:38:41.669Z,88.20
2017-09-21T21:41:09.266Z,88.20
2017-09-21T21:43:36.875Z,88.00
2017-09-21T21:46:04.560Z,88.00
2017-09-21T21:48:32.176Z,88.00
2017-09-21T21:50:59.787Z,88.00
2017-09-21T21:53:27.451Z,88.00
2017-09-21T21:55:55.058Z,88.80
2017-09-21T21:58:22.672Z,87.90
2017-09-21T22:01:05.986Z,87.80
2017-09-21T22:03:34.144Z,87.70
2017-09-21T22:06:02.506Z,88.20
2017-09-21T22:08:31.031Z,88.10
2017-09-21T22:10:59.564Z,88.10
2017-09-21T22:13:27.162Z,88.00
2017-09-21T22:15:54.922Z,88.10
2017-09-21T22:18:23.304Z,88.30
2017-09-21T22:20:50.891Z,88.30
2017-09-21T22:23:18.542Z,88.60
2017-09-21T22:25:46.155Z,88.60
2017-09-21T22:28:13.957Z,88.40
2017-09-21T22:30:42.375Z,88.50
2017-09-21T22:33:09.986Z,88.50
2017-09-21T22:35:39.052Z,88.50
2017-09-21T22:38:07.579Z,88.50
2017-09-21T22:40:38.065Z,88.50
2017-09-21T22:43:07.708Z,88.60
2017-09-21T22:45:35.298Z,88.70
2017-09-21T22:48:02.895Z,88.70
2017-09-21T22:50:33.533Z,88.80
2017-09-21T22:53:01.894Z,89.20
2017-09-21T22:55:29.499Z,89.10
2017-09-21T22:57:58.196Z,89.40
2017-09-21T23:00:26.639Z,89.50
2017-09-21T23:02:54.234Z,89.50
2017-09-21T23:05:21.889Z,89.60
2017-09-21T23:07:52.112Z,89.70
2017-09-21T23:10:19.728Z,89.70
2017-09-21T23:12:47.392Z,89.60
2017-09-21T23:15:14.996Z,89.20
2017-09-21T23:17:43.359Z,89.50
2017-09-21T23:20:11.778Z,89.70
2017-09-21T23:22:39.395Z,89.70
2017-09-21T23:25:07.008Z,89.30
2017-09-21T23:27:35.418Z,89.20
2017-09-21T23:30:06.778Z,89.10
2017-09-21T23:32:34.388Z,89.00
2017-09-21T23:35:02.174Z,89.10
2017-09-21T23:37:29.774Z,89.20
2017-09-21T23:39:57.366Z,89.50
2017-09-21T23:42:25.029Z,89.90
2017-09-21T23:44:53.400Z,89.40
2017-09-21T23:47:22.984Z,89.10
2017-09-21T23:49:53.231Z,89.10
2017-09-21T23:52:20.837Z,89.00
2017-09-21T23:54:49.221Z,88.90
2017-09-21T23:57:16.872Z,88.90
2017-09-21T23:59:44.461Z,88.90
